Terminal Aerodrome Forecast
Issued by NWS Twin Cities, MN

Current Version | Previous Version | Text Only | Print | Product List | Glossary On
Versions: 1 2 3 4 5 6 7 8 9 10 11 12 13 14 15 16
000
FTUS43 KMPX 231100
TAFSTC
TAF
KSTC 231121Z 2312/2412 15003KT P6SM SKC
      TEMPO 2312/2314 5SM BR
     FM231400 16008KT P6SM SKC
     FM231800 17011G17KT P6SM BKN250
     FM240000 16008KT P6SM BKN050 OVC250=

USA.gov is the U.S. government's official web portal to all federal, state and local government web resources and services.